Historique des mesures à Cassis (13260), France
Quotidien Résumé Avril 8, 2018 Unités:  Métrique    US   Métrique/US
« Précédent (Jour)
Suivant (Jour) »
Quotidien Hebdomadaire Mensuel Annuel Période au choix
  Maximum: Minimum: Moyenne:
Température: TemperatureC °C 15.9 °C 17.1 °C
Point de rosée: DewpointC °C 4.8 °C 6.2 °C
Humidité: Humidity % 36 % 46 %
Vitesse du vent: 0 km/h 4.2 km/h 21.4 km/h
Rafales: 0 km/h - -
Vent:- - ESE
Pression: PressurehPa hPa 1001.2 hPa -
Précipitations: 0.0 mm    
Historical Graphs
 
 
Mesures pour : Avril 8, 2018
Heure Temperature Point de rosée Pression Vent Vitesse du vent Rafales Humidité Pluie (par heure) Conditions
TemperatureC °C DewpointC °C PressurehPa hPa Calm     Humidity % HourlyPrecipMM mm SoftwareType W/m2
00:10 18.2 °C 6.0 °C 1006.3 hPa ESE 16.3 km/h 16.3 km/h 45 % 0.0 mm open2300-1.11 W/m2
01:10 17.9 °C 7.0 °C 1006.7 hPa ESE 18.7 km/h 37 km/h 49 % 0.0 mm open2300-1.11 W/m2
02:10 17.2 °C 7.2 °C 1006.7 hPa North 4.2 km/h 4.2 km/h 52 % 0.0 mm open2300-1.11 W/m2
03:10 16.1 °C 7.3 °C 1006.7 hPa SE 9.8 km/h 12.7 km/h 56 % 0.0 mm open2300-1.11 W/m2
04:10 15.9 °C 7.1 °C 1005.6 hPa NE 24.3 km/h 27.2 km/h 56 % 0.0 mm open2300-1.11 W/m2
05:10 16.5 °C 5.7 °C 1005.3 hPa ESE 18.7 km/h 22.5 km/h 49 % 0.0 mm open2300-1.11 W/m2
06:10 16.7 °C 5.6 °C 1003.3 hPa SE 13.2 km/h 19.2 km/h 48 % 0.0 mm open2300-1.11 W/m2
07:12 16.9 °C 5.8 °C 1003.9 hPa SE 31.9 km/h 31.9 km/h 48 % 0.0 mm open2300-1.11 W/m2
08:12 17.3 °C 5.8 °C 1004.3 hPa East 14.5 km/h 27.7 km/h 47 % 0.0 mm open2300-1.11 W/m2
09:12 17.8 °C 6.3 °C 1004.6 hPa SE 30.7 km/h 35.2 km/h 47 % 0.0 mm open2300-1.11 W/m2
10:11 17.3 °C 7.1 °C 1004.6 hPa SE 14.5 km/h 14.5 km/h 51 % 0.0 mm open2300-1.11 W/m2
11:11 19.2 °C 7.6 °C 1004.6 hPa ESE 24.3 km/h 24.3 km/h 47 % 0.0 mm open2300-1.11 W/m2
12:11 19.0 °C 6.4 °C 1002.9 hPa ESE 30.7 km/h 30.7 km/h 44 % 0.0 mm open2300-1.11 W/m2
13:11 20.4 °C 7.0 °C 1001.6 hPa ESE 22 km/h 41.2 km/h 42 % 0.0 mm open2300-1.11 W/m2
14:11 21.1 °C 5.3 °C 1001.2 hPa SSE 37 km/h 37 km/h 36 % 0.0 mm open2300-1.11 W/m2
15:11 20.5 °C 4.8 °C 1001.9 hPa ESE 19.6 km/h 19.6 km/h 36 % 0.0 mm open2300-1.11 W/m2
16:12 19.9 °C 5.5 °C 1001.6 hPa SE 27.7 km/h 27.7 km/h 39 % 0.0 mm open2300-1.11 W/m2
17:11 19.2 °C 6.6 °C 1001.2 hPa ESE 50.5 km/h 50.5 km/h 44 % 0.0 mm open2300-1.11 W/m2
18:10 18.1 °C 6.6 °C 1001.9 hPa SSE 23 km/h 23 km/h 47 % 0.0 mm open2300-1.11 W/m2
19:10 17.4 °C 5.9 °C 1001.9 hPa ENE 20.9 km/h 52.8 km/h 47 % 0.0 mm open2300-1.11 W/m2
20:10 16.6 °C 6.1 °C 1001.9 hPa SE 14 km/h 20.3 km/h 50 % 0.0 mm open2300-1.11 W/m2
21:10 15.9 °C 6.8 °C 1002.9 hPa SE 27.2 km/h 33.6 km/h 55 % 0.0 mm open2300-1.11 W/m2
22:10 15.9 °C 6.8 °C 1002.9 hPa SSE 15.6 km/h 19.6 km/h 55 % 0.0 mm open2300-1.11 W/m2
23:10 15.9 °C 7.7 °C 1002.9 hPa SSE 27.2 km/h 37.5 km/h 58 % 0.0 mm open2300-1.11 W/m2
Observations météo à CASSIS
WU-History script by Weather Underground - 1 mb